createdAt,value
2019-05-20T00:05:36.480Z,7.67
2019-05-20T00:15:36.989Z,8.77
2019-05-20T00:25:37.282Z,8.57
2019-05-20T00:35:37.917Z,6.57
2019-05-20T00:45:38.447Z,7.60
2019-05-20T00:55:39.484Z,6.80
2019-05-20T01:05:39.779Z,7.20
2019-05-20T01:15:40.063Z,6.70
2019-05-20T01:25:40.364Z,6.53
2019-05-20T01:35:40.802Z,6.47
2019-05-20T01:45:41.990Z,5.90
2019-05-20T01:55:44.251Z,6.77
2019-05-20T02:05:45.225Z,5.70
2019-05-20T02:15:58.051Z,6.57
2019-05-20T02:25:58.695Z,5.43
2019-05-20T02:35:59.142Z,5.37
2019-05-20T02:45:59.463Z,7.00
2019-05-20T02:55:59.840Z,5.33
2019-05-20T03:06:00.073Z,6.73
2019-05-20T03:16:00.408Z,5.10
2019-05-20T03:26:00.789Z,5.63
2019-05-20T03:36:01.418Z,7.47
2019-05-20T03:46:01.701Z,5.90
2019-05-20T03:56:02.403Z,7.53
2019-05-20T04:06:03.862Z,6.57
2019-05-20T04:16:04.668Z,5.80
2019-05-20T04:26:04.986Z,9.50
2019-05-20T04:36:05.564Z,7.30
2019-05-20T04:46:06.536Z,6.40
2019-05-20T04:56:08.374Z,7.47
2019-05-20T05:06:09.436Z,7.10
2019-05-20T05:16:13.717Z,8.57
2019-05-20T05:26:14.061Z,7.23
2019-05-20T05:36:15.311Z,5.43
2019-05-20T05:46:15.644Z,6.37
2019-05-20T05:56:16.289Z,6.83
2019-05-20T06:06:16.743Z,6.50
2019-05-20T06:16:35.003Z,6.30
2019-05-20T06:26:19.494Z,6.33
2019-05-20T06:36:26.846Z,6.40
2019-05-20T06:46:23.101Z,6.20
2019-05-20T06:56:23.457Z,6.50
2019-05-20T07:06:23.985Z,6.50
2019-05-20T07:16:24.720Z,7.13
2019-05-20T07:26:25.541Z,6.50
2019-05-20T07:36:25.936Z,6.07
2019-05-20T07:46:26.229Z,6.77
2019-05-20T07:56:30.287Z,6.43
2019-05-20T08:06:30.627Z,6.53
2019-05-20T08:16:31.675Z,6.43
2019-05-20T08:26:32.245Z,5.63
2019-05-20T08:36:35.269Z,5.20
2019-05-20T08:46:35.678Z,4.90
2019-05-20T08:56:36.434Z,4.80
2019-05-20T09:06:37.832Z,4.20
2019-05-20T09:16:38.453Z,4.87
2019-05-20T09:26:38.861Z,6.67
2019-05-20T09:36:39.254Z,7.77
2019-05-20T09:46:39.617Z,6.17
2019-05-20T09:56:40.354Z,4.40
2019-05-20T10:06:40.930Z,3.53
2019-05-20T10:16:41.707Z,3.87
2019-05-20T10:26:42.697Z,4.30
2019-05-20T10:36:43.188Z,4.10
2019-05-20T10:46:43.857Z,4.07
2019-05-20T10:56:44.148Z,3.27
2019-05-20T11:06:44.627Z,4.00
2019-05-20T11:16:45.516Z,3.60
2019-05-20T11:26:45.990Z,3.50
2019-05-20T11:36:46.787Z,3.67
2019-05-20T11:46:47.082Z,3.60
2019-05-20T11:56:48.241Z,3.23
2019-05-20T12:06:48.678Z,4.13
2019-05-20T12:16:49.052Z,3.67
2019-05-20T12:26:49.410Z,3.33
2019-05-20T12:36:49.769Z,3.47
2019-05-20T12:46:50.503Z,3.10
2019-05-20T12:56:51.094Z,3.40
2019-05-20T13:06:51.388Z,4.70
2019-05-20T13:16:52.432Z,4.03
2019-05-20T13:26:52.808Z,3.53
2019-05-20T13:36:53.456Z,4.53
2019-05-20T13:46:54.145Z,4.13
2019-05-20T13:56:54.532Z,6.70
2019-05-20T14:06:54.878Z,5.40
2019-05-20T14:16:55.708Z,5.70
2019-05-20T14:26:56.335Z,6.00
2019-05-20T14:36:56.674Z,4.40
2019-05-20T14:46:57.072Z,3.90
2019-05-20T14:56:58.266Z,4.50
2019-05-20T15:06:58.865Z,4.47
2019-05-20T15:16:59.679Z,4.83
2019-05-20T15:27:00.088Z,5.80
2019-05-20T15:37:00.534Z,4.43
2019-05-20T15:47:01.227Z,5.60
2019-05-20T15:57:01.733Z,4.90
2019-05-20T16:07:02.782Z,6.33
2019-05-20T16:17:04.245Z,6.00
2019-05-20T16:27:05.261Z,11.17
2019-05-20T16:37:05.700Z,4.77
2019-05-20T16:47:06.168Z,5.17
2019-05-20T16:57:06.565Z,7.03
2019-05-20T17:07:07.313Z,4.87
2019-05-20T17:17:08.495Z,3.90
2019-05-20T17:27:08.812Z,8.50
2019-05-20T17:37:10.177Z,3.93
2019-05-20T17:47:10.918Z,4.53
2019-05-20T17:57:11.967Z,4.63
2019-05-20T18:07:12.813Z,4.30
2019-05-20T18:17:13.261Z,5.47
2019-05-20T18:27:13.666Z,3.80
2019-05-20T18:37:14.128Z,4.60
2019-05-20T18:47:15.020Z,4.27
2019-05-20T18:57:15.407Z,3.50
2019-05-20T19:07:15.871Z,4.50
2019-05-20T19:17:17.035Z,4.13
2019-05-20T19:27:19.377Z,3.30
2019-05-20T19:37:20.759Z,3.53
2019-05-20T19:47:21.835Z,4.57
2019-05-20T19:57:24.078Z,4.50
2019-05-20T20:07:28.767Z,3.93
2019-05-20T20:17:28.474Z,3.70
2019-05-20T20:27:28.804Z,3.40
2019-05-20T20:37:29.424Z,3.63
2019-05-20T20:47:41.216Z,4.57
2019-05-20T20:57:32.080Z,4.97
2019-05-20T21:07:32.631Z,4.33
2019-05-20T21:17:33.292Z,3.87
2019-05-20T21:27:34.055Z,3.30
2019-05-20T21:37:34.522Z,4.50
2019-05-20T21:47:34.728Z,13.70
2019-05-20T21:57:35.007Z,10.43
2019-05-20T22:07:35.642Z,17.23
2019-05-20T22:17:35.929Z,11.77
2019-05-20T22:27:36.219Z,9.90
2019-05-20T22:37:36.820Z,6.03
2019-05-20T22:47:37.329Z,5.03
2019-05-20T22:57:37.705Z,6.70
2019-05-20T23:07:38.349Z,9.43
2019-05-20T23:17:38.603Z,5.27
2019-05-20T23:27:39.241Z,4.90
2019-05-20T23:37:39.432Z,3.10
2019-05-20T23:47:40.892Z,3.33
2019-05-20T23:57:41.486Z,3.40
